ウダーチヌイ の空港の天気 - METARとTAF

Polyarny ( UERP / PYJ ) - ロシア ウダーチヌイ
飛行場実況気象(Metar)
観測時間06/18 04:00 YAKT (06/17 19:00 UTC)
風向・風速南東 3m/s
視程10km以上
天気現象
なし
気温18℃
湿度45%
気圧1007hPa
METARUERP 171900Z 14003MPS CAVOK 18/06 Q1007 R35/090060 NOSIG RMK QFE711
過去の天気等 Google飛行場航空写真 Wunderground天気予報

過去48時間のMETAR

飛行場予報(TAF)
発表時間: 6/18 02:00 YAKT (6/17 17:00 UTC)
予報対象時間: 18日3時 YAKT ~ 19日3時 YAKT
風向・風速南東 5m/s 瞬間風速 10m/s
視程10km以上
全天の4割程度の積乱雲 雲底高度 610m
全天を覆う雲 雲底高度 3050m
TAF UERP 171700Z 1718/1818 14005G10MPS 9999 SCT020CB OVC100 TX25/1805Z TN15/1718Z